Time;durP1;ratioP1;P1;durP2;ratioP2;P2;SDS_P1;SDS_P2;PMS_P1;PMS_P2;Temp;Humidity;BMP_temperature;BMP_pressure;BME280_temperature;BME280_humidity;BME280_pressure;Samples;Min_cycle;Max_cycle;Signal;HPM_P1;HPM_P2
2021/03/03 00:00:36;;;;;;;50.70;23.92;;;;;;;13.64;48.02;102296.88;5094238;28;20044;-65
2021/03/03 00:03:03;;;;;;;45.30;23.65;;;;;;;13.60;48.12;102300.53;5095039;28;20052;-69
2021/03/03 00:05:33;;;;;;;50.05;24.98;;;;;;;13.73;47.71;102297.88;5093926;28;20403;-67
2021/03/03 00:08:00;;;;;;;50.28;23.48;;;;;;;13.67;47.93;102303.78;5093815;28;20052;-70
2021/03/03 00:10:27;;;;;;;47.80;24.20;;;;;;;13.49;48.28;102297.06;5090427;28;20052;-69
2021/03/03 00:12:54;;;;;;;45.03;25.10;;;;;;;13.63;48.09;102299.94;5089127;28;20048;-64
2021/03/03 00:15:30;;;;;;;50.65;26.10;;;;;;;13.67;48.01;102299.03;5093422;28;20036;-68
2021/03/03 00:17:57;;;;;;;53.72;26.02;;;;;;;13.71;47.73;102299.28;5075341;28;20055;-67
2021/03/03 00:20:24;;;;;;;53.75;26.33;;;;;;;13.75;47.70;102294.81;5092087;28;20396;-70
2021/03/03 00:22:53;;;;;;;51.00;26.73;;;;;;;13.65;47.86;102303.25;5091579;28;20052;-67
2021/03/03 00:25:20;;;;;;;54.63;26.65;;;;;;;13.71;47.77;102304.81;5091765;28;20047;-70
2021/03/03 00:27:47;;;;;;;47.42;25.83;;;;;;;13.73;47.58;102310.88;5091952;28;20062;-69
2021/03/03 00:30:15;;;;;;;42.28;24.92;;;;;;;13.68;47.83;102306.25;5057459;28;20048;-68
2021/03/03 00:32:43;;;;;;;45.08;23.90;;;;;;;13.60;47.94;102295.81;5091496;28;20403;-68
2021/03/03 00:35:10;;;;;;;51.72;25.27;;;;;;;13.49;48.28;102303.41;5091988;28;20063;-65
2021/03/03 00:37:37;;;;;;;41.58;24.15;;;;;;;13.49;48.45;102299.84;5092769;28;20059;-71
2021/03/03 00:40:06;;;;;;;46.55;24.35;;;;;;;13.50;48.40;102296.75;5071071;28;20048;-72
2021/03/03 00:42:33;;;;;;;48.85;25.50;;;;;;;13.35;48.77;102296.91;5074299;28;20048;-73
2021/03/03 00:45:01;;;;;;;52.72;26.23;;;;;;;13.40;48.81;102294.13;5090229;28;20048;-73
2021/03/03 00:47:27;;;;;;;49.85;26.27;;;;;;;13.44;48.76;102295.16;5091218;28;20061;-70
2021/03/03 00:49:58;;;;;;;59.22;27.73;;;;;;;13.25;49.09;102294.28;5082586;28;20052;-73
2021/03/03 00:52:29;;;;;;;48.92;26.60;;;;;;;13.23;49.22;102292.94;5087037;28;20063;-71
2021/03/03 00:54:56;;;;;;;57.50;28.48;;;;;;;13.21;49.25;102298.75;5091888;28;20052;-70
2021/03/03 00:57:25;;;;;;;47.67;26.95;;;;;;;13.18;49.66;102291.03;5055319;28;20059;-69
2021/03/03 00:59:53;;;;;;;51.53;26.85;;;;;;;13.13;49.76;102299.38;5052560;28;20061;-66
2021/03/03 01:02:20;;;;;;;55.45;28.95;;;;;;;13.31;49.47;102290.34;5070574;28;20427;-68
2021/03/03 01:04:47;;;;;;;54.80;28.20;;;;;;;13.28;49.39;102301.16;5054453;28;20049;-65
2021/03/03 01:07:14;;;;;;;51.90;28.83;;;;;;;13.27;49.49;102297.56;5053624;28;20052;-63
2021/03/03 01:09:43;;;;;;;50.25;27.60;;;;;;;13.46;49.04;102308.69;5054447;28;20032;-69
2021/03/03 01:12:10;;;;;;;49.40;27.55;;;;;;;13.33;49.30;102309.41;5070450;28;20048;-66
2021/03/03 01:14:40;;;;;;;46.72;26.77;;;;;;;13.46;49.03;102314.25;5053594;28;20036;-68
2021/03/03 01:17:07;;;;;;;46.08;26.52;;;;;;;13.32;49.36;102307.75;5070913;28;20510;-65
2021/03/03 01:19:38;;;;;;;50.53;26.38;;;;;;;13.42;49.44;102307.66;5070709;28;20040;-67
2021/03/03 01:22:05;;;;;;;56.28;27.42;;;;;;;13.13;49.87;102307.69;5054236;28;20059;-66
2021/03/03 01:24:32;;;;;;;47.53;28.25;;;;;;;13.10;49.87;102299.97;5034101;28;20048;-69
2021/03/03 01:26:58;;;;;;;45.25;27.13;;;;;;;13.18;50.02;102306.81;5051356;28;20057;-68
2021/03/03 01:29:28;;;;;;;53.63;27.05;;;;;;;13.08;49.91;102302.19;5051776;28;20053;-70
2021/03/03 01:31:55;;;;;;;53.90;27.52;;;;;;;13.11;50.00;102303.56;5051276;28;20064;-69
2021/03/03 01:34:22;;;;;;;46.55;27.48;;;;;;;13.07;49.99;102300.56;5070882;28;20048;-68
2021/03/03 01:36:55;;;;;;;49.05;28.42;;;;;;;12.99;50.75;102301.16;5052549;28;20048;-68
2021/03/03 01:39:25;;;;;;;48.42;27.30;;;;;;;13.11;50.48;102304.38;5072028;28;20056;-67
2021/03/03 01:41:52;;;;;;;50.58;26.83;;;;;;;13.19;50.39;102300.16;5070784;28;20048;-65
2021/03/03 01:44:19;;;;;;;50.95;27.23;;;;;;;12.60;52.18;102305.94;5071534;28;20040;-68
2021/03/03 01:46:46;;;;;;;46.35;26.33;;;;;;;12.57;52.87;102311.19;5071818;28;20057;-68
2021/03/03 01:49:14;;;;;;;49.85;25.63;;;;;;;12.33;53.74;102313.84;5075581;28;20506;-64
2021/03/03 01:51:41;;;;;;;47.20;25.55;;;;;;;12.10;54.94;102312.59;5075452;28;20048;-71
2021/03/03 01:54:08;;;;;;;43.28;24.55;;;;;;;12.19;54.68;102310.91;5077824;28;20044;-67
2021/03/03 01:56:34;;;;;;;49.90;27.52;;;;;;;12.23;54.70;102302.88;5075218;28;20052;-69
2021/03/03 01:59:01;;;;;;;42.60;25.48;;;;;;;12.27;54.42;102307.53;5072367;28;20048;-65
2021/03/03 02:01:28;;;;;;;41.67;23.95;;;;;;;12.40;54.24;102306.91;5078108;28;20059;-66
2021/03/03 02:03:58;;;;;;;52.38;25.95;;;;;;;12.08;55.33;102306.53;5094983;28;20052;-66
2021/03/03 02:06:47;;;;;;;53.65;26.15;;;;;;;11.86;56.13;102308.88;5076153;28;20100;-63
2021/03/03 02:09:24;;;;;;;48.05;25.75;;;;;;;11.94;55.91;102313.78;5095733;28;20067;-64
2021/03/03 02:11:57;;;;;;;42.60;25.20;;;;;;;12.03;55.78;102309.31;5077316;28;20539;-65
2021/03/03 02:14:26;;;;;;;43.58;25.38;;;;;;;12.09;55.51;102307.38;5077326;28;20055;-66
2021/03/03 02:16:54;;;;;;;42.08;25.67;;;;;;;11.78;56.37;102305.88;5077633;28;20411;-64
2021/03/03 02:19:37;;;;;;;51.97;25.75;;;;;;;11.97;56.10;102299.44;5059615;28;20052;-63
2021/03/03 02:22:21;;;;;;;42.47;24.75;;;;;;;12.17;55.53;102299.31;5074159;28;20514;-64
2021/03/03 02:24:54;;;;;;;46.20;24.48;;;;;;;12.32;54.85;102290.94;5074669;28;20486;-66
2021/03/03 02:27:22;;;;;;;44.25;24.45;;;;;;;12.05;55.30;102301.59;5040423;28;20057;-65
2021/03/03 02:29:51;;;;;;;47.38;25.67;;;;;;;12.06;55.52;102308.78;5056437;28;20052;-69
2021/03/03 02:32:19;;;;;;;47.45;26.25;;;;;;;12.04;55.61;102305.47;5050562;28;20055;-65
2021/03/03 02:34:46;;;;;;;49.67;26.48;;;;;;;11.89;56.02;102304.72;5060823;28;20071;-68
2021/03/03 02:37:15;;;;;;;43.17;26.35;;;;;;;12.09;55.64;102301.84;5076569;28;20052;-67
2021/03/03 02:39:44;;;;;;;57.13;25.90;;;;;;;11.91;55.97;102294.19;5075683;28;20566;-63
2021/03/03 02:42:19;;;;;;;48.40;25.85;;;;;;;11.96;55.77;102302.47;5059526;28;20051;-66
2021/03/03 02:44:48;;;;;;;49.13;26.30;;;;;;;11.94;55.77;102302.75;5053790;28;20048;-68
2021/03/03 02:47:15;;;;;;;47.13;25.70;;;;;;;11.83;56.19;102306.69;5039997;28;20048;-70
2021/03/03 02:49:43;;;;;;;46.92;26.88;;;;;;;11.87;56.17;102295.91;5040579;28;20052;-69
2021/03/03 02:52:12;;;;;;;46.28;25.98;;;;;;;11.90;56.09;102296.16;5073995;28;20052;-69
2021/03/03 02:54:45;;;;;;;47.55;26.33;;;;;;;11.89;56.25;102296.44;5057224;28;20052;-69
2021/03/03 02:57:15;;;;;;;39.92;25.35;;;;;;;11.86;56.07;102297.81;5053282;28;20048;-65
2021/03/03 02:59:45;;;;;;;47.08;26.23;;;;;;;11.84;56.15;102302.78;5072408;28;20055;-67
2021/03/03 03:02:13;;;;;;;44.22;25.65;;;;;;;11.78;56.71;102301.19;5055798;28;20052;-68
2021/03/03 03:04:44;;;;;;;54.92;27.75;;;;;;;11.57;57.44;102291.31;5076267;28;20044;-65
2021/03/03 03:07:15;;;;;;;48.83;27.00;;;;;;;11.74;57.09;102293.72;5089766;28;20079;-71
2021/03/03 03:09:44;;;;;;;49.30;26.88;;;;;;;11.83;56.85;102292.88;5076413;28;20507;-70
2021/03/03 03:12:13;;;;;;;49.00;27.10;;;;;;;11.63;57.71;102300.41;5094474;28;20044;-72
2021/03/03 03:14:40;;;;;;;52.03;27.73;;;;;;;11.65;57.80;102298.19;5076298;28;20048;-69
2021/03/03 03:17:07;;;;;;;47.10;27.67;;;;;;;11.66;57.71;102291.56;5059052;28;20054;-71
2021/03/03 03:19:38;;;;;;;48.90;26.48;;;;;;;11.74;57.41;102293.72;5058413;28;20052;-72
2021/03/03 03:22:08;;;;;;;48.15;27.83;;;;;;;11.75;57.62;102289.88;5076206;28;20064;-69
2021/03/03 03:24:38;;;;;;;54.67;27.75;;;;;;;11.44;58.50;102289.13;5057736;28;20063;-71
2021/03/03 03:27:09;;;;;;;47.35;27.88;;;;;;;11.63;57.71;102281.06;5080526;28;20397;-72
2021/03/03 03:29:39;;;;;;;46.33;27.77;;;;;;;11.65;57.97;102285.22;5079672;28;20051;-67
2021/03/03 03:32:23;;;;;;;48.65;27.30;;;;;;;11.68;57.70;102290.16;5096495;28;20051;-68
2021/03/03 03:34:50;;;;;;;49.50;26.80;;;;;;;11.64;57.94;102299.28;5056043;28;20398;-71
2021/03/03 03:37:18;;;;;;;49.40;27.67;;;;;;;11.78;57.36;102297.59;5055496;28;20060;-71
2021/03/03 03:39:46;;;;;;;47.70;26.65;;;;;;;11.89;57.33;102297.25;5055049;28;20060;-70
2021/03/03 03:42:14;;;;;;;43.50;26.98;;;;;;;11.75;57.62;102296.22;5073576;28;20040;-67
2021/03/03 03:44:42;;;;;;;50.47;26.65;;;;;;;11.70;57.74;102304.50;5074485;28;20036;-67
2021/03/03 03:47:10;;;;;;;51.10;26.83;;;;;;;11.25;58.99;102310.16;5075181;28;20048;-70
2021/03/03 03:49:37;;;;;;;43.63;26.55;;;;;;;11.15;59.21;102304.66;5075919;28;20395;-64
2021/03/03 03:52:04;;;;;;;50.92;27.23;;;;;;;11.32;59.06;102296.88;5075106;28;20044;-69
2021/03/03 03:54:39;;;;;;;47.45;27.55;;;;;;;11.48;58.50;102306.78;5075177;28;20059;-70
2021/03/03 03:57:06;;;;;;;45.80;28.00;;;;;;;11.43;58.80;102308.72;5093454;28;20376;-67
2021/03/03 03:59:32;;;;;;;46.28;26.23;;;;;;;11.60;58.14;102301.78;5092998;28;20048;-72
2021/03/03 04:02:02;;;;;;;48.50;26.70;;;;;;;11.57;58.07;102299.59;5092974;28;20048;-66
2021/03/03 04:04:32;;;;;;;47.50;26.83;;;;;;;11.68;57.79;102308.69;5091674;28;20618;-66
2021/03/03 04:06:59;;;;;;;40.08;25.65;;;;;;;11.79;57.33;102296.47;5093360;28;20056;-67
2021/03/03 04:09:25;;;;;;;52.10;26.42;;;;;;;11.79;57.42;102304.75;5092271;28;20471;-70
2021/03/03 04:11:52;;;;;;;43.90;24.80;;;;;;;11.71;57.47;102295.13;5091723;28;20075;-67
2021/03/03 04:14:19;;;;;;;47.42;26.15;;;;;;;11.73;57.37;102294.84;5092674;28;20458;-73
2021/03/03 04:16:46;;;;;;;38.78;25.65;;;;;;;11.63;57.53;102292.91;5096124;28;20048;-69
2021/03/03 04:19:13;;;;;;;50.45;25.67;;;;;;;11.59;57.71;102296.53;5092589;28;20048;-70
2021/03/03 04:21:51;;;;;;;48.47;27.65;;;;;;;11.46;58.39;102303.47;5091298;28;20054;-69
2021/03/03 04:24:18;;;;;;;50.03;26.83;;;;;;;11.55;58.02;102298.19;5092994;28;20040;-67
2021/03/03 04:26:45;;;;;;;47.75;25.70;;;;;;;11.34;58.67;102311.22;5074699;28;20052;-74
2021/03/03 04:29:12;;;;;;;47.47;27.77;;;;;;;11.11;59.35;102306.31;5093150;28;20047;-75
2021/03/03 04:31:45;;;;;;;44.80;25.58;;;;;;;11.32;58.95;102313.44;5093047;28;20047;-74
2021/03/03 04:34:12;;;;;;;45.58;27.13;;;;;;;11.57;58.18;102304.25;5093258;28;20040;-69
2021/03/03 04:36:39;;;;;;;45.83;26.73;;;;;;;11.53;58.01;102305.94;5092486;28;20048;-68
2021/03/03 04:39:06;;;;;;;45.13;27.52;;;;;;;11.00;59.62;102310.22;5091769;28;20059;-67
2021/03/03 04:41:32;;;;;;;45.25;26.60;;;;;;;11.19;59.12;102312.09;5091995;28;20434;-70
2021/03/03 04:44:00;;;;;;;45.22;25.83;;;;;;;11.28;58.87;102310.41;5092620;28;20054;-70
2021/03/03 04:46:27;;;;;;;44.95;26.50;;;;;;;11.50;58.18;102306.50;5092083;28;20479;-68
2021/03/03 04:48:57;;;;;;;49.08;26.60;;;;;;;11.42;58.30;102302.38;5074901;28;20063;-73
2021/03/03 04:51:23;;;;;;;48.00;26.90;;;;;;;11.31;58.45;102307.09;5076618;28;20536;-70
2021/03/03 04:53:50;;;;;;;47.45;26.13;;;;;;;11.49;58.25;102307.63;5096756;28;20048;-65
2021/03/03 04:56:17;;;;;;;46.90;26.02;;;;;;;11.38;58.63;102306.81;5094987;28;20509;-70
2021/03/03 04:58:44;;;;;;;47.53;25.80;;;;;;;11.32;58.55;102305.16;5092464;28;20044;-64
2021/03/03 05:01:11;;;;;;;47.47;26.80;;;;;;;11.42;58.49;102304.31;5091493;28;20052;-64
2021/03/03 05:04:00;;;;;;;44.15;26.77;;;;;;;11.31;58.61;102306.28;5077972;28;20055;-67
2021/03/03 05:06:26;;;;;;;50.60;25.90;;;;;;;11.32;58.85;102310.69;5072404;28;20391;-70
2021/03/03 05:08:54;;;;;;;48.90;26.15;;;;;;;11.38;58.58;102308.75;5070840;28;20049;-71
2021/03/03 05:11:23;;;;;;;47.75;26.30;;;;;;;11.38;58.66;102315.09;5071984;28;20057;-69
2021/03/03 05:13:50;;;;;;;50.90;27.65;;;;;;;11.41;58.61;102311.78;5071765;28;20045;-71
2021/03/03 05:16:17;;;;;;;48.30;26.30;;;;;;;11.36;58.68;102311.78;5070483;28;20478;-67
2021/03/03 05:18:49;;;;;;;49.10;26.17;;;;;;;11.40;58.58;102310.13;5070053;28;20084;-66
2021/03/03 05:21:16;;;;;;;53.35;25.88;;;;;;;11.46;58.29;102308.16;5070960;28;20060;-65
2021/03/03 05:23:43;;;;;;;42.40;26.38;;;;;;;11.47;58.12;102313.41;5072459;28;20036;-68
2021/03/03 05:26:25;;;;;;;47.30;27.25;;;;;;;11.34;58.62;102298.28;5068309;28;20045;-69
2021/03/03 05:28:52;;;;;;;55.92;27.25;;;;;;;11.37;58.64;102301.59;5071682;28;20777;-66
2021/03/03 05:31:19;;;;;;;43.17;25.73;;;;;;;11.54;58.26;102310.34;5070543;28;20045;-67
2021/03/03 05:34:01;;;;;;;42.83;26.98;;;;;;;11.55;57.96;102301.78;5072091;28;20048;-69
2021/03/03 05:36:28;;;;;;;48.30;26.25;;;;;;;11.60;57.51;102300.94;5071731;28;20068;-68
2021/03/03 05:38:58;;;;;;;49.47;26.58;;;;;;;11.68;57.52;102308.69;5071940;28;20051;-68
2021/03/03 05:41:31;;;;;;;46.08;26.80;;;;;;;11.62;57.64;102301.47;5071135;28;20105;-67
2021/03/03 05:43:59;;;;;;;53.53;26.10;;;;;;;11.42;57.83;102307.88;5053650;28;20048;-68
2021/03/03 05:46:26;;;;;;;42.15;25.05;;;;;;;11.61;57.53;102308.13;5071558;28;20522;-70
2021/03/03 05:48:59;;;;;;;44.10;25.98;;;;;;;11.62;57.60;102301.47;5002376;28;20048;-66
2021/03/03 05:51:27;;;;;;;45.17;26.38;;;;;;;11.35;58.37;102310.13;5054175;28;20411;-66
2021/03/03 05:53:55;;;;;;;48.85;27.50;;;;;;;11.16;59.05;102314.56;5070974;28;20055;-68
2021/03/03 05:56:23;;;;;;;51.67;26.25;;;;;;;11.43;58.48;102320.59;5053115;28;20432;-64
2021/03/03 05:58:50;;;;;;;48.90;26.52;;;;;;;11.57;57.84;102309.78;5070301;28;20045;-66
2021/03/03 06:01:17;;;;;;;56.30;27.83;;;;;;;11.10;58.93;102318.47;5071519;28;20072;-68
2021/03/03 06:03:45;;;;;;;49.00;26.05;;;;;;;11.17;58.79;102316.25;5070627;28;20044;-65
2021/03/03 06:06:12;;;;;;;49.78;27.23;;;;;;;10.98;59.40;102306.91;5071338;28;20072;-69
2021/03/03 06:08:39;;;;;;;46.20;25.67;;;;;;;11.41;58.29;102310.94;5070671;28;20407;-69
2021/03/03 06:11:07;;;;;;;51.42;27.30;;;;;;;11.55;57.64;102312.84;5070110;28;20499;-70
2021/03/03 06:13:35;;;;;;;49.33;27.23;;;;;;;11.42;57.85;102321.69;5070793;28;20060;-67
2021/03/03 06:16:02;;;;;;;52.85;26.00;;;;;;;11.49;57.74;102313.13;5070704;28;20056;-67
2021/03/03 06:18:32;;;;;;;46.30;25.83;;;;;;;11.53;57.56;102319.72;5053784;28;20052;-69
2021/03/03 06:20:59;;;;;;;40.60;25.23;;;;;;;11.18;58.22;102321.47;5071274;28;20418;-72
2021/03/03 06:23:30;;;;;;;48.05;24.50;;;;;;;11.35;57.74;102324.75;5053338;28;20045;-69
2021/03/03 06:26:02;;;;;;;49.95;26.63;;;;;;;11.52;57.43;102323.59;5071281;28;20048;-64
2021/03/03 06:28:35;;;;;;;44.05;25.20;;;;;;;11.43;57.60;102326.13;5070422;28;20396;-66
2021/03/03 06:31:22;;;;;;;49.55;26.77;;;;;;;11.61;57.08;102330.19;5053544;28;20395;-69
2021/03/03 06:33:50;;;;;;;48.33;25.63;;;;;;;11.31;57.97;102342.94;5071695;28;20052;-68
2021/03/03 06:36:26;;;;;;;47.83;27.35;;;;;;;11.31;58.17;102336.63;5056159;28;20052;-71
2021/03/03 06:38:54;;;;;;;46.88;26.13;;;;;;;11.34;58.35;102334.13;5047526;28;20040;-66
2021/03/03 06:41:21;;;;;;;48.28;26.13;;;;;;;11.63;57.57;102330.75;5095606;28;20067;-69
2021/03/03 06:43:57;;;;;;;49.00;26.83;;;;;;;11.69;57.45;102324.13;5094417;28;20056;-68
2021/03/03 06:46:24;;;;;;;47.60;25.67;;;;;;;11.63;57.38;102336.28;5093702;28;20048;-68
2021/03/03 06:48:51;;;;;;;50.83;26.15;;;;;;;11.84;56.82;102327.66;5059664;28;20047;-69
2021/03/03 06:51:29;;;;;;;53.38;25.77;;;;;;;11.91;56.36;102336.44;5094155;28;20048;-70
2021/03/03 06:54:01;;;;;;;44.97;24.80;;;;;;;11.97;56.11;102332.56;5060618;28;20055;-72
2021/03/03 06:56:33;;;;;;;54.33;24.67;;;;;;;11.69;57.15;102333.25;5094585;28;20127;-68
2021/03/03 06:59:27;;;;;;;49.42;25.63;;;;;;;11.91;56.43;102339.22;5093290;28;20055;-73
2021/03/03 07:02:11;;;;;;;52.90;27.17;;;;;;;11.82;56.87;102337.34;5094468;28;20048;-70
2021/03/03 07:04:42;;;;;;;47.83;26.45;;;;;;;11.81;56.81;102339.25;5093837;28;20265;-72
2021/03/03 07:07:09;;;;;;;47.75;25.98;;;;;;;11.71;57.28;102344.81;5094056;28;20105;-74
2021/03/03 07:09:40;;;;;;;47.65;26.13;;;;;;;11.64;57.57;102344.31;5093929;28;20048;-72
2021/03/03 07:12:12;;;;;;;53.05;27.85;;;;;;;11.45;57.94;102354.25;5074338;28;20055;-70
2021/03/03 07:14:41;;;;;;;52.67;27.83;;;;;;;11.44;57.83;102354.53;5076141;28;20044;-68
2021/03/03 07:17:16;;;;;;;52.95;28.77;;;;;;;11.45;58.18;102350.66;5094020;28;20486;-66
2021/03/03 07:19:48;;;;;;;51.97;27.80;;;;;;;11.71;57.69;102355.03;5075928;28;20044;-63
2021/03/03 07:22:23;;;;;;;51.00;27.55;;;;;;;11.99;56.94;102359.91;5094029;28;20055;-77
2021/03/03 07:25:03;;;;;;;54.53;29.35;;;;;;;11.99;56.92;102352.44;5093159;28;20056;-74
2021/03/03 07:27:30;;;;;;;64.60;29.30;;;;;;;11.58;57.89;102364.69;5068110;28;20067;-71
2021/03/03 07:30:07;;;;;;;56.70;27.63;;;;;;;11.70;57.52;102367.19;5074933;28;20442;-68
2021/03/03 07:32:35;;;;;;;54.45;27.65;;;;;;;11.82;57.40;102367.72;5075627;28;20063;-72
2021/03/03 07:35:04;;;;;;;60.20;27.98;;;;;;;12.08;56.36;102363.72;5092582;28;20052;-68
2021/03/03 07:37:35;;;;;;;50.45;28.13;;;;;;;11.98;55.87;102369.28;5093733;28;20063;-71
2021/03/03 07:40:13;;;;;;;54.67;26.40;;;;;;;12.06;55.59;102368.72;5093251;28;20396;-69
2021/03/03 07:42:42;;;;;;;62.20;27.77;;;;;;;11.94;55.66;102366.25;5093588;28;20051;-66
2021/03/03 07:45:12;;;;;;;54.40;26.92;;;;;;;11.97;55.78;102371.22;5088344;28;20044;-66
2021/03/03 07:47:42;;;;;;;56.85;27.35;;;;;;;11.92;55.71;102368.50;5070747;28;20052;-67
2021/03/03 07:50:17;;;;;;;56.03;29.70;;;;;;;11.91;55.81;102372.34;5078413;28;20533;-69
2021/03/03 07:52:47;;;;;;;53.63;28.73;;;;;;;12.02;55.43;102373.97;5086010;28;20044;-64
2021/03/03 07:55:14;;;;;;;51.58;27.00;;;;;;;12.22;55.42;102370.28;5093042;28;20055;-67
2021/03/03 07:57:45;;;;;;;61.65;27.33;;;;;;;12.15;55.53;102372.53;5084550;28;20052;-71
2021/03/03 08:00:14;;;;;;;53.60;27.08;;;;;;;12.17;55.70;102368.38;5095250;28;20490;-72
2021/03/03 08:02:49;;;;;;;49.47;26.33;;;;;;;12.15;55.44;102378.06;5066567;28;20056;-69
2021/03/03 08:05:36;;;;;;;49.47;26.80;;;;;;;12.26;55.37;102363.91;5051261;28;20291;-70
2021/03/03 08:08:33;;;;;;;57.78;27.13;;;;;;;12.25;55.19;102369.72;5074374;28;20056;-67
2021/03/03 08:11:01;;;;;;;50.15;26.10;;;;;;;12.32;55.16;102365.53;5054490;28;20048;-67
2021/03/03 08:13:28;;;;;;;52.33;25.45;;;;;;;12.48;54.96;102360.75;5072681;28;20057;-66
2021/03/03 08:15:59;;;;;;;59.03;25.40;;;;;;;12.29;55.20;102365.28;5071794;28;20056;-69
2021/03/03 08:18:43;;;;;;;53.28;26.88;;;;;;;12.38;54.97;102369.91;5061397;28;20044;-68
2021/03/03 08:21:11;;;;;;;53.75;25.40;;;;;;;12.26;55.33;102368.59;5063503;28;20070;-71
2021/03/03 08:23:42;;;;;;;51.10;26.27;;;;;;;12.29;55.18;102374.38;5070635;28;20047;-69
2021/03/03 08:26:15;;;;;;;76.22;28.25;;;;;;;12.46;54.96;102380.34;5075314;28;20044;-72
2021/03/03 08:28:48;;;;;;;50.55;25.08;;;;;;;12.69;53.98;102369.72;5071519;28;20056;-71
2021/03/03 08:31:28;;;;;;;55.10;26.63;;;;;;;12.57;54.57;102375.59;5064937;28;20049;-68
2021/03/03 08:33:59;;;;;;;55.97;25.77;;;;;;;12.42;54.85;102376.53;5074469;28;20055;-71
2021/03/03 08:36:30;;;;;;;45.85;24.88;;;;;;;12.44;54.76;102379.00;5055377;28;20063;-70
2021/03/03 08:39:05;;;;;;;51.63;25.67;;;;;;;12.34;55.13;102387.34;5068749;28;20083;-67
2021/03/03 08:41:33;;;;;;;52.58;24.83;;;;;;;12.46;54.62;102385.88;5066754;28;20053;-65
2021/03/03 08:44:14;;;;;;;50.20;24.95;;;;;;;12.58;54.52;102382.78;5070468;28;20509;-69
2021/03/03 08:46:42;;;;;;;52.75;27.45;;;;;;;12.87;53.74;102380.91;5064839;28;20044;-72
2021/03/03 08:49:09;;;;;;;67.10;31.90;;;;;;;12.87;53.92;102382.84;5051825;28;20048;-69
2021/03/03 08:51:37;;;;;;;63.92;27.02;;;;;;;13.02;53.53;102377.22;5083465;28;20055;-72
2021/03/03 08:54:05;;;;;;;53.97;26.98;;;;;;;13.11;53.40;102381.84;5069343;28;20044;-72
2021/03/03 08:56:38;;;;;;;55.95;28.08;;;;;;;13.16;53.63;102376.25;5055366;28;20047;-72
2021/03/03 08:59:06;;;;;;;58.97;26.88;;;;;;;13.20;53.73;102376.50;5087240;28;20060;-69
2021/03/03 09:02:17;;;;;;;68.43;31.20;;;;;;;13.49;52.67;102366.28;5088432;28;20044;-73
2021/03/03 09:04:52;;;;;;;56.55;28.30;;;;;;;13.62;52.01;102371.09;5084385;28;20056;-71
2021/03/03 09:07:24;;;;;;;58.83;27.45;;;;;;;13.61;51.76;102361.16;5060384;28;20502;-71
2021/03/03 09:09:55;;;;;;;54.17;24.50;;;;;;;13.93;51.12;102360.50;5082789;28;20111;-74
2021/03/03 09:12:30;;;;;;;59.05;25.55;;;;;;;13.94;51.07;102354.66;5080148;28;20062;-73
2021/03/03 09:14:59;;;;;;;47.88;24.67;;;;;;;14.12;50.42;102362.16;5087710;28;20394;-74
2021/03/03 09:17:31;;;;;;;54.65;23.95;;;;;;;14.16;50.43;102357.69;5069529;28;20056;-71
2021/03/03 09:20:18;;;;;;;53.58;24.00;;;;;;;14.33;49.76;102354.47;5082788;28;20040;-73
2021/03/03 09:22:47;;;;;;;59.83;23.88;;;;;;;14.35;49.77;102354.97;5062553;28;20482;-72
2021/03/03 09:25:24;;;;;;;47.38;22.90;;;;;;;14.46;49.58;102353.69;5072056;28;20040;-72
2021/03/03 09:27:56;;;;;;;53.10;23.45;;;;;;;14.55;49.17;102349.13;5067310;28;20063;-69
2021/03/03 09:30:26;;;;;;;51.85;23.20;;;;;;;14.53;48.96;102352.22;5086135;28;20051;-72
2021/03/03 09:32:53;;;;;;;53.08;22.50;;;;;;;14.75;48.63;102353.53;5076592;28;20052;-72
2021/03/03 09:35:31;;;;;;;57.90;25.55;;;;;;;14.52;49.33;102349.75;5065991;28;20369;-72
2021/03/03 09:37:59;;;;;;;54.33;27.05;;;;;;;14.49;49.33;102344.78;5066149;28;20067;-67
2021/03/03 09:40:34;;;;;;;52.80;26.63;;;;;;;14.67;48.75;102355.03;5085963;28;20056;-71
2021/03/03 09:43:02;;;;;;;60.88;25.42;;;;;;;14.75;49.19;102354.34;5069394;28;20052;-72
2021/03/03 09:45:32;;;;;;;53.55;23.70;;;;;;;15.70;47.22;102344.34;5070440;28;20040;-69
2021/03/03 09:48:00;;;;;;;53.40;22.65;;;;;;;15.18;47.51;102341.16;5087417;28;20048;-73
2021/03/03 09:50:30;;;;;;;51.00;22.75;;;;;;;15.08;47.95;102344.91;5050305;28;20048;-69
2021/03/03 09:52:59;;;;;;;56.42;23.67;;;;;;;15.33;47.73;102338.09;5053205;28;20399;-69
2021/03/03 09:55:29;;;;;;;55.65;21.70;;;;;;;15.42;47.14;102337.13;5066784;28;20048;-69
2021/03/03 09:57:58;;;;;;;60.92;21.58;;;;;;;15.52;46.97;102339.69;5077770;28;20048;-68
2021/03/03 10:00:27;;;;;;;49.65;20.08;;;;;;;15.43;47.01;102338.75;5087558;28;20048;-64
2021/03/03 10:03:03;;;;;;;42.42;20.45;;;;;;;15.35;47.10;102341.38;5069958;28;20048;-71
2021/03/03 10:05:33;;;;;;;43.90;18.55;;;;;;;15.55;46.84;102335.50;5058622;28;21341;-73
2021/03/03 10:08:06;;;;;;;49.17;19.40;;;;;;;15.45;46.95;102333.72;5062899;28;20055;-73
2021/03/03 10:10:39;;;;;;;55.08;19.10;;;;;;;15.44;46.75;102339.59;5059495;28;20040;-66
2021/03/03 10:13:23;;;;;;;51.00;19.50;;;;;;;15.60;46.87;102335.38;5083189;28;20044;-71
2021/03/03 10:15:58;;;;;;;58.35;19.73;;;;;;;15.80;46.28;102337.75;5083330;28;20052;-71
2021/03/03 10:18:28;;;;;;;48.22;20.33;;;;;;;15.78;46.41;102329.72;5064853;28;20506;-72
2021/03/03 10:20:56;;;;;;;47.50;20.25;;;;;;;15.72;46.40;102335.69;5078804;28;20303;-67
2021/03/03 10:23:30;;;;;;;55.13;23.70;;;;;;;16.04;46.46;102331.97;5081981;28;20040;-74
2021/03/03 10:26:06;;;;;;;49.50;22.63;;;;;;;15.95;46.20;102331.06;5079955;28;20048;-68
2021/03/03 10:28:37;;;;;;;62.00;21.95;;;;;;;16.18;45.50;102332.78;5078949;28;20055;-66
2021/03/03 10:31:18;;;;;;;43.35;21.70;;;;;;;16.29;45.42;102323.88;5065205;28;20044;-65
2021/03/03 10:33:47;;;;;;;51.75;22.52;;;;;;;16.35;45.41;102319.84;5048456;28;20060;-64
2021/03/03 10:36:21;;;;;;;45.08;22.27;;;;;;;16.27;46.57;102320.59;5083982;28;20060;-66
2021/03/03 10:38:56;;;;;;;48.22;22.10;;;;;;;16.51;45.55;102318.38;5080009;28;20596;-65
2021/03/03 10:41:29;;;;;;;45.75;20.90;;;;;;;16.65;45.29;102321.09;5074777;28;20056;-64
2021/03/03 10:44:06;;;;;;;50.22;18.38;;;;;;;16.67;44.49;102321.63;5087167;28;20044;-64
2021/03/03 10:46:43;;;;;;;47.80;16.27;;;;;;;16.71;44.32;102331.00;5084889;28;20044;-68
2021/03/03 10:49:18;;;;;;;44.13;17.27;;;;;;;17.30;42.79;102313.84;5057894;28;20388;-64
2021/03/03 10:51:45;;;;;;;45.33;16.27;;;;;;;17.45;42.88;102324.56;5055243;28;20052;-64
2021/03/03 10:54:29;;;;;;;36.22;14.68;;;;;;;17.03;42.89;102325.19;5074601;28;20513;-67
2021/03/03 10:57:08;;;;;;;39.55;12.93;;;;;;;16.92;42.93;102320.16;5051663;28;20052;-65
2021/03/03 10:59:37;;;;;;;33.22;10.43;;;;;;;17.20;41.99;102321.66;5076761;28;20068;-65
2021/03/03 11:02:07;;;;;;;35.50;10.13;;;;;;;17.30;41.73;102318.59;5054225;28;20051;-67
2021/03/03 11:04:50;;;;;;;33.42;8.43;;;;;;;17.59;41.45;102311.38;5040627;28;20053;-66
2021/03/03 11:07:17;;;;;;;32.70;8.57;;;;;;;17.82;40.29;102315.75;5070655;28;20059;-67
2021/03/03 11:09:53;;;;;;;28.27;7.63;;;;;;;17.88;40.35;102314.47;5054732;28;20112;-65
2021/03/03 11:12:25;;;;;;;28.65;7.60;;;;;;;18.03;39.55;102304.78;5053640;28;20506;-65
2021/03/03 11:14:52;;;;;;;23.75;8.48;;;;;;;17.75;39.85;102314.56;5085123;28;20048;-68
2021/03/03 11:17:19;;;;;;;30.17;8.23;;;;;;;17.32;40.40;102314.34;5083107;28;20529;-65
2021/03/03 11:19:46;;;;;;;29.75;7.63;;;;;;;17.44;40.47;102306.22;5052152;28;20056;-68
2021/03/03 11:22:13;;;;;;;40.80;6.80;;;;;;;17.42;40.41;102313.25;5065653;28;20051;-71
2021/03/03 11:24:41;;;;;;;22.08;7.25;;;;;;;17.63;39.80;102304.03;5070714;28;20064;-67